createdAt,value
2022-08-29T00:02:22.328Z,27.00
2022-08-29T00:08:37.488Z,27.30
2022-08-29T00:14:51.724Z,27.50
2022-08-29T00:21:02.854Z,27.50
2022-08-29T00:27:18.119Z,27.20
2022-08-29T00:33:31.832Z,27.10
2022-08-29T00:39:46.406Z,27.00
2022-08-29T00:45:59.080Z,27.00
2022-08-29T00:52:14.772Z,26.90
2022-08-29T00:58:31.250Z,26.70
2022-08-29T01:04:43.925Z,26.60
2022-08-29T01:11:10.172Z,26.50
2022-08-29T01:17:25.623Z,26.50
2022-08-29T01:23:41.975Z,26.30
2022-08-29T01:29:54.051Z,26.30
2022-08-29T01:36:07.167Z,26.20
2022-08-29T01:42:19.801Z,26.20
2022-08-29T01:48:35.638Z,26.20
2022-08-29T01:54:50.193Z,26.10
2022-08-29T02:01:05.860Z,26.10
2022-08-29T02:07:19.057Z,26.00
2022-08-29T02:13:31.190Z,26.00
2022-08-29T02:19:47.716Z,25.90
2022-08-29T02:26:00.482Z,25.90
2022-08-29T02:32:12.456Z,25.90
2022-08-29T02:38:22.478Z,25.90
2022-08-29T02:44:56.791Z,25.90
2022-08-29T02:51:06.788Z,25.80
2022-08-29T02:57:19.485Z,25.80
2022-08-29T03:03:31.511Z,25.80
2022-08-29T03:09:44.840Z,25.70
2022-08-29T03:15:56.538Z,25.60
2022-08-29T03:22:05.984Z,25.60
2022-08-29T03:28:20.072Z,25.60
2022-08-29T03:34:32.015Z,25.50
2022-08-29T03:40:46.907Z,25.50
2022-08-29T03:46:59.128Z,25.40
2022-08-29T03:53:13.346Z,25.40
2022-08-29T03:59:25.364Z,25.30
2022-08-29T04:05:37.746Z,25.30
2022-08-29T04:11:50.946Z,25.20
2022-08-29T04:18:03.175Z,25.20
2022-08-29T04:24:16.330Z,25.10
2022-08-29T04:30:28.155Z,25.10
2022-08-29T04:36:38.972Z,25.10
2022-08-29T04:42:53.256Z,25.00
2022-08-29T04:49:06.357Z,24.90
2022-08-29T04:55:21.349Z,24.90
2022-08-29T05:01:29.838Z,24.80
2022-08-29T05:07:42.151Z,24.80
2022-08-29T05:13:54.459Z,24.70
2022-08-29T05:20:08.207Z,24.70
2022-08-29T05:26:18.451Z,24.60
2022-08-29T05:32:29.896Z,24.60
2022-08-29T05:38:41.213Z,24.50
2022-08-29T05:44:54.354Z,24.50
2022-08-29T05:51:05.983Z,24.40
2022-08-29T05:57:20.896Z,24.30
2022-08-29T06:03:33.949Z,24.40
2022-08-29T06:09:48.455Z,24.60
2022-08-29T06:16:02.682Z,24.70
2022-08-29T06:22:14.404Z,24.80
2022-08-29T06:28:28.511Z,24.90
2022-08-29T06:34:41.064Z,24.90
2022-08-29T06:40:54.060Z,24.90
2022-08-29T06:47:03.125Z,25.00
2022-08-29T06:53:27.013Z,25.00
2022-08-29T06:59:28.585Z,25.00
2022-08-29T07:05:43.071Z,25.10
2022-08-29T07:11:56.328Z,25.10
2022-08-29T07:18:10.880Z,25.20
2022-08-29T07:24:24.854Z,25.10
2022-08-29T07:30:37.154Z,25.10
2022-08-29T07:36:47.853Z,25.10
2022-08-29T07:42:56.810Z,25.20
2022-08-29T07:49:08.294Z,25.20
2022-08-29T07:55:23.850Z,25.20
2022-08-29T08:01:36.357Z,25.10
2022-08-29T08:07:55.445Z,25.20
2022-08-29T08:14:02.206Z,25.30
2022-08-29T08:20:12.819Z,25.30
2022-08-29T08:26:23.469Z,25.10
2022-08-29T08:32:33.880Z,25.10
2022-08-29T08:38:46.457Z,25.20
2022-08-29T08:45:07.455Z,25.30
2022-08-29T08:51:22.788Z,25.30
2022-08-29T08:57:35.283Z,25.10
2022-08-29T09:10:38.018Z,25.20
2022-08-29T09:16:49.259Z,25.20
2022-08-29T09:23:03.428Z,25.20
2022-08-29T09:29:16.652Z,25.00
2022-08-29T09:35:31.427Z,24.90
2022-08-29T09:41:42.747Z,24.70
2022-08-29T09:47:57.873Z,24.60
2022-08-29T09:54:27.604Z,24.60
2022-08-29T10:00:42.367Z,24.50
2022-08-29T10:06:53.225Z,24.60
2022-08-29T10:13:09.554Z,24.70
2022-08-29T10:19:21.900Z,24.70
2022-08-29T10:25:34.342Z,24.80
2022-08-29T10:31:49.376Z,24.90
2022-08-29T10:38:04.294Z,24.80
2022-08-29T10:44:25.511Z,24.80
2022-08-29T10:50:46.700Z,24.80
2022-08-29T10:56:55.879Z,24.90
2022-08-29T11:03:12.148Z,24.90
2022-08-29T11:09:23.363Z,24.90
2022-08-29T11:15:34.287Z,25.00
2022-08-29T11:21:49.443Z,25.00
2022-08-29T11:28:03.636Z,25.00
2022-08-29T11:34:20.134Z,24.90
2022-08-29T11:41:26.349Z,24.90
2022-08-29T11:46:53.566Z,25.00
2022-08-29T11:53:05.041Z,25.00
2022-08-29T11:59:16.788Z,25.00
2022-08-29T12:06:03.727Z,25.00
2022-08-29T12:12:46.782Z,25.10
2022-08-29T12:18:57.730Z,25.20
2022-08-29T12:25:26.628Z,25.20
2022-08-29T12:32:18.255Z,25.30
2022-08-29T12:38:16.514Z,25.40
2022-08-29T12:44:31.133Z,25.50
2022-08-29T12:50:44.293Z,25.50
2022-08-29T12:56:59.620Z,25.50
2022-08-29T13:03:15.404Z,25.60
2022-08-29T13:09:30.923Z,25.70
2022-08-29T13:15:44.147Z,25.90
2022-08-29T13:21:54.167Z,26.00
2022-08-29T13:28:08.870Z,26.10
2022-08-29T13:34:22.781Z,26.30
2022-08-29T13:40:40.908Z,26.40
2022-08-29T13:46:52.695Z,26.50
2022-08-29T13:53:04.315Z,26.70
2022-08-29T13:59:16.868Z,26.70
2022-08-29T14:05:27.661Z,26.80
2022-08-29T14:11:41.332Z,26.80
2022-08-29T14:17:52.726Z,26.90
2022-08-29T14:24:04.883Z,27.00
2022-08-29T14:30:19.715Z,27.10
2022-08-29T14:36:30.786Z,27.10
2022-08-29T14:42:42.352Z,27.10
2022-08-29T14:48:53.522Z,27.20
2022-08-29T14:55:05.169Z,27.30
2022-08-29T15:01:15.795Z,27.30
2022-08-29T15:07:27.083Z,27.40
2022-08-29T15:13:37.703Z,27.40
2022-08-29T15:20:35.001Z,27.50
2022-08-29T15:26:01.087Z,27.60
2022-08-29T15:32:15.032Z,27.60
2022-08-29T15:38:24.971Z,27.60
2022-08-29T15:44:36.800Z,27.70
2022-08-29T15:50:47.600Z,27.80
2022-08-29T15:56:58.466Z,27.80
2022-08-29T16:03:11.545Z,27.90
2022-08-29T16:09:25.506Z,28.00
2022-08-29T16:15:37.877Z,28.00
2022-08-29T16:21:50.084Z,28.10
2022-08-29T16:28:00.358Z,28.10
2022-08-29T16:34:12.931Z,28.20
2022-08-29T16:40:25.649Z,28.20
2022-08-29T16:46:36.217Z,28.20
2022-08-29T16:52:47.789Z,28.20
2022-08-29T16:59:02.470Z,28.20
2022-08-29T17:05:14.723Z,28.30
2022-08-29T17:11:23.785Z,28.30
2022-08-29T17:17:37.551Z,28.40
2022-08-29T17:23:50.055Z,28.40
2022-08-29T17:30:05.239Z,28.40
2022-08-29T17:36:20.286Z,28.50
2022-08-29T17:42:30.989Z,28.50
2022-08-29T17:48:41.415Z,28.50
2022-08-29T17:54:52.227Z,28.50
2022-08-29T18:01:03.528Z,28.50
2022-08-29T18:07:12.764Z,28.50
2022-08-29T18:13:23.510Z,28.50
2022-08-29T18:19:35.126Z,28.50
2022-08-29T18:25:47.458Z,28.50
2022-08-29T18:31:58.755Z,28.50
2022-08-29T18:38:12.330Z,28.50
2022-08-29T18:44:24.723Z,28.50
2022-08-29T18:50:39.662Z,28.10
2022-08-29T18:56:51.262Z,27.80
2022-08-29T19:03:03.044Z,27.50
2022-08-29T19:09:16.491Z,27.70
2022-08-29T19:15:26.803Z,28.00
2022-08-29T19:21:37.310Z,28.10
2022-08-29T19:27:48.192Z,28.20
2022-08-29T19:33:59.655Z,28.30
2022-08-29T19:40:11.901Z,28.20
2022-08-29T19:46:23.075Z,28.20
2022-08-29T19:52:35.052Z,27.70
2022-08-29T19:58:45.787Z,27.50
2022-08-29T20:04:57.548Z,27.20
2022-08-29T20:11:10.333Z,27.50
2022-08-29T20:17:22.281Z,27.80
2022-08-29T20:23:33.603Z,28.00
2022-08-29T20:29:45.216Z,28.10
2022-08-29T20:36:15.082Z,28.10
2022-08-29T20:42:26.369Z,28.20
2022-08-29T20:48:39.393Z,28.00
2022-08-29T20:54:51.701Z,27.80
2022-08-29T21:01:05.218Z,27.60
2022-08-29T21:07:17.312Z,27.50
2022-08-29T21:13:32.498Z,27.70
2022-08-29T21:19:44.008Z,27.90
2022-08-29T21:25:56.726Z,28.00
2022-08-29T21:32:11.614Z,28.10
2022-08-29T21:38:23.122Z,27.90
2022-08-29T21:44:36.510Z,27.60
2022-08-29T21:50:50.637Z,27.50
2022-08-29T21:57:01.418Z,27.30
2022-08-29T22:03:14.703Z,27.20
2022-08-29T22:09:27.293Z,27.50
2022-08-29T22:15:54.270Z,27.80
2022-08-29T22:22:06.782Z,27.80
2022-08-29T22:28:18.073Z,27.60
2022-08-29T22:34:31.416Z,27.50
2022-08-29T22:40:45.923Z,27.40
2022-08-29T22:46:58.175Z,27.20
2022-08-29T22:53:11.363Z,27.20
2022-08-29T22:59:23.559Z,27.10
2022-08-29T23:05:37.359Z,27.00
2022-08-29T23:11:49.652Z,27.00
2022-08-29T23:18:00.195Z,27.00
2022-08-29T23:24:15.074Z,27.10
2022-08-29T23:30:27.708Z,27.00
2022-08-29T23:36:38.298Z,26.90
2022-08-29T23:42:52.296Z,26.70
2022-08-29T23:48:59.561Z,26.80
2022-08-29T23:55:14.531Z,26.70
